Time;durP1;ratioP1;P1;durP2;ratioP2;P2;SDS_P1;SDS_P2;PMS_P1;PMS_P2;Temp;Humidity;BMP_temperature;BMP_pressure;BME280_temperature;BME280_humidity;BME280_pressure;Samples;Min_cycle;Max_cycle;Signal;HPM_P1;HPM_P2
2021/08/09 00:00:06;;;;;;;0.93;0.30;;;25.70;52.90;;;;;;4989579;28;20395;-65
2021/08/09 00:02:32;;;;;;;0.43;0.20;;;25.70;52.90;;;;;;4990014;28;20418;-66
2021/08/09 00:04:57;;;;;;;0.70;0.20;;;25.70;53.00;;;;;;4987553;28;20509;-65
2021/08/09 00:07:23;;;;;;;0.30;0.20;;;25.60;53.00;;;;;;4986687;28;20529;-65
2021/08/09 00:09:49;;;;;;;0.90;0.25;;;25.60;53.00;;;;;;4985949;28;20390;-65
2021/08/09 00:12:16;;;;;;;0.50;0.20;;;25.60;53.10;;;;;;4986725;28;20903;-65
2021/08/09 00:14:42;;;;;;;0.65;0.25;;;25.60;53.10;;;;;;4991119;28;20390;-65
2021/08/09 00:17:08;;;;;;;0.40;0.20;;;25.60;53.10;;;;;;4986087;28;20775;-65
2021/08/09 00:19:33;;;;;;;0.40;0.20;;;25.60;53.10;;;;;;4992305;28;20418;-65
2021/08/09 00:21:59;;;;;;;0.70;0.30;;;25.60;53.10;;;;;;4985636;28;20430;-65
2021/08/09 00:24:25;;;;;;;0.90;0.30;;;25.60;53.10;;;;;;4986848;28;20402;-65
2021/08/09 00:26:52;;;;;;;0.40;0.20;;;25.60;53.10;;;;;;4987802;28;20425;-64
2021/08/09 00:29:18;;;;;;;1.00;0.30;;;25.60;53.00;;;;;;4989238;28;20732;-65
2021/08/09 00:31:44;;;;;;;0.60;0.20;;;25.60;52.90;;;;;;4987883;28;20422;-65
2021/08/09 00:34:11;;;;;;;0.65;0.38;;;25.60;53.00;;;;;;4986965;28;21378;-65
2021/08/09 00:36:36;;;;;;;0.40;0.20;;;25.60;53.00;;;;;;4987315;28;20400;-65
2021/08/09 00:39:03;;;;;;;0.60;0.30;;;25.60;53.00;;;;;;4987372;28;20748;-65
2021/08/09 00:41:29;;;;;;;0.40;0.20;;;25.70;52.90;;;;;;4988585;28;20961;-65
2021/08/09 00:43:56;;;;;;;0.50;0.20;;;25.70;52.90;;;;;;4985228;28;21327;-65
2021/08/09 00:46:23;;;;;;;1.30;0.30;;;25.60;52.80;;;;;;4991845;28;20387;-65
2021/08/09 00:48:48;;;;;;;0.60;0.30;;;25.60;52.80;;;;;;4990881;28;20744;-65
2021/08/09 00:51:14;;;;;;;0.40;0.22;;;25.60;52.80;;;;;;4991102;28;20437;-65
2021/08/09 00:53:40;;;;;;;0.70;0.30;;;25.60;52.90;;;;;;4991188;28;20520;-65
2021/08/09 00:56:06;;;;;;;1.00;0.30;;;25.60;52.90;;;;;;4985301;28;20536;-64
2021/08/09 00:58:33;;;;;;;0.60;0.20;;;25.60;52.90;;;;;;4985513;28;20409;-65
2021/08/09 01:00:59;;;;;;;0.40;0.20;;;25.60;52.90;;;;;;4985968;28;20961;-65
2021/08/09 01:03:24;;;;;;;1.70;0.20;;;25.60;52.80;;;;;;4986746;28;20552;-64
2021/08/09 01:05:50;;;;;;;1.00;0.30;;;25.60;53.10;;;;;;4985014;28;20397;-65
2021/08/09 01:08:23;;;;;;;1.38;0.20;;;25.60;53.00;;;;;;4987845;28;20397;-65
2021/08/09 01:11:08;;;;;;;0.75;0.20;;;25.60;53.10;;;;;;4987243;28;20477;-65
2021/08/09 01:13:58;;;;;;;1.17;0.30;;;25.70;53.00;;;;;;4985112;28;20462;-65
2021/08/09 01:16:44;;;;;;;1.50;0.30;;;25.70;52.90;;;;;;5000163;28;20422;-65
2021/08/09 01:20:00;;;;;;;1.10;0.30;;;25.70;52.70;;;;;;4986847;28;20847;-65
2021/08/09 01:22:43;;;;;;;1.90;0.30;;;25.70;52.60;;;;;;4984384;28;20457;-65
2021/08/09 01:25:52;;;;;;;0.67;0.30;;;25.80;52.60;;;;;;5003142;28;20560;-65
2021/08/09 01:28:19;;;;;;;1.60;0.30;;;25.70;52.50;;;;;;4988130;28;20480;-64
2021/08/09 01:30:47;;;;;;;0.75;0.35;;;25.80;52.60;;;;;;4988487;28;20402;-65
2021/08/09 01:33:14;;;;;;;0.57;0.30;;;25.80;52.50;;;;;;4987529;28;20489;-64
2021/08/09 01:35:42;;;;;;;1.00;0.20;;;25.80;52.50;;;;;;4984913;28;20973;-65
2021/08/09 01:38:08;;;;;;;1.23;0.30;;;25.80;52.50;;;;;;4987759;28;20401;-65
2021/08/09 01:40:35;;;;;;;1.40;0.30;;;25.70;52.40;;;;;;4984651;28;20684;-65
2021/08/09 01:43:03;;;;;;;0.93;0.20;;;25.70;52.40;;;;;;4984927;28;20493;-65
2021/08/09 01:45:29;;;;;;;0.52;0.30;;;25.80;52.50;;;;;;4988255;28;20873;-64
2021/08/09 01:47:57;;;;;;;1.05;0.30;;;25.80;52.50;;;;;;4986258;28;20398;-64
2021/08/09 01:50:23;;;;;;;0.90;0.30;;;25.70;52.40;;;;;;4988093;28;20736;-65
2021/08/09 01:52:50;;;;;;;0.68;0.30;;;25.70;52.50;;;;;;4989338;28;20517;-65
2021/08/09 01:55:17;;;;;;;1.23;0.30;;;25.70;52.40;;;;;;4984827;28;20610;-64
2021/08/09 01:57:44;;;;;;;0.63;0.30;;;25.70;52.40;;;;;;4990012;28;21482;-65
2021/08/09 02:00:13;;;;;;;0.68;0.20;;;25.70;52.40;;;;;;4988888;28;20390;-65
2021/08/09 02:02:39;;;;;;;0.50;0.20;;;25.70;52.40;;;;;;4984368;28;20883;-64
2021/08/09 02:05:13;;;;;;;0.47;0.20;;;25.70;52.40;;;;;;4983854;28;20402;-64
2021/08/09 02:07:48;;;;;;;0.68;0.20;;;25.70;52.40;;;;;;4992078;28;20390;-65
2021/08/09 02:10:17;;;;;;;0.63;0.25;;;25.70;52.40;;;;;;4989893;28;20389;-64
2021/08/09 02:13:06;;;;;;;0.63;0.30;;;25.70;52.40;;;;;;4989943;28;20425;-64
2021/08/09 02:15:57;;;;;;;0.35;0.20;;;25.70;52.40;;;;;;4987255;28;20454;-65
2021/08/09 02:18:52;;;;;;;1.10;0.30;;;25.70;52.50;;;;;;4983820;28;20422;-65
2021/08/09 02:21:26;;;;;;;0.60;0.30;;;25.70;52.40;;;;;;4988900;28;20405;-65
2021/08/09 02:23:55;;;;;;;0.50;0.20;;;25.70;52.40;;;;;;4990848;28;20414;-64
2021/08/09 02:26:29;;;;;;;0.45;0.20;;;25.70;52.40;;;;;;4986364;28;20886;-65
2021/08/09 02:29:04;;;;;;;0.90;0.20;;;25.70;52.40;;;;;;4986012;28;20441;-65
2021/08/09 02:31:32;;;;;;;0.63;0.22;;;25.70;52.40;;;;;;4985225;28;20563;-64
2021/08/09 02:34:00;;;;;;;0.70;0.20;;;25.70;52.40;;;;;;4985221;28;20430;-65
2021/08/09 02:36:26;;;;;;;0.40;0.17;;;25.70;52.40;;;;;;4985689;28;20404;-65
2021/08/09 02:38:52;;;;;;;0.60;0.20;;;25.70;52.30;;;;;;4983981;28;20395;-65
2021/08/09 02:41:19;;;;;;;0.80;0.20;;;25.60;52.30;;;;;;5017973;28;20406;-65
2021/08/09 02:43:46;;;;;;;0.70;0.30;;;25.70;52.40;;;;;;4986457;28;20399;-65
2021/08/09 02:46:12;;;;;;;0.63;0.22;;;25.70;52.40;;;;;;4983220;28;20399;-65
2021/08/09 02:48:39;;;;;;;0.45;0.20;;;25.60;52.30;;;;;;4985097;28;20407;-65
2021/08/09 02:51:06;;;;;;;0.43;0.20;;;25.70;52.40;;;;;;4985944;28;20477;-64
2021/08/09 02:53:32;;;;;;;0.98;0.22;;;25.60;52.30;;;;;;4986370;28;20432;-65
2021/08/09 02:56:01;;;;;;;0.65;0.22;;;25.60;52.40;;;;;;4982710;28;20412;-65
2021/08/09 02:58:27;;;;;;;0.63;0.20;;;25.60;52.30;;;;;;4987361;28;20518;-65
2021/08/09 03:00:56;;;;;;;0.40;0.20;;;25.60;52.40;;;;;;4982364;28;20876;-65
2021/08/09 03:03:23;;;;;;;0.70;0.30;;;25.60;52.30;;;;;;4983638;28;20532;-65
2021/08/09 03:05:55;;;;;;;0.60;0.20;;;25.60;52.40;;;;;;4989355;28;20398;-65
2021/08/09 03:08:22;;;;;;;0.77;0.20;;;25.60;52.40;;;;;;4990627;28;20575;-64
2021/08/09 03:10:49;;;;;;;1.05;0.32;;;25.60;52.30;;;;;;4989142;28;20403;-65
2021/08/09 03:13:18;;;;;;;1.38;0.30;;;25.50;52.60;;;;;;4983357;28;21326;-64
2021/08/09 03:15:44;;;;;;;0.60;0.30;;;25.50;52.60;;;;;;4988998;28;21013;-64
2021/08/09 03:18:10;;;;;;;0.50;0.20;;;25.50;52.60;;;;;;4983076;28;20565;-65
2021/08/09 03:20:36;;;;;;;1.20;0.30;;;25.50;52.80;;;;;;4988567;28;20390;-64
2021/08/09 03:23:01;;;;;;;0.68;0.30;;;25.50;53.40;;;;;;4984451;28;20420;-64
2021/08/09 03:25:27;;;;;;;3.30;0.30;;;25.50;53.00;;;;;;4983229;28;20479;-64
2021/08/09 03:27:53;;;;;;;0.50;0.20;;;25.50;53.50;;;;;;4987720;28;20490;-65
2021/08/09 03:30:19;;;;;;;1.60;0.30;;;25.50;53.20;;;;;;4986039;28;20488;-64
2021/08/09 03:32:45;;;;;;;1.20;0.30;;;25.50;53.80;;;;;;4983698;28;20935;-64
2021/08/09 03:35:10;;;;;;;0.88;0.30;;;25.50;53.60;;;;;;4986640;28;20448;-64
2021/08/09 03:37:36;;;;;;;1.63;0.40;;;25.50;53.60;;;;;;4983074;28;20468;-65
2021/08/09 03:40:02;;;;;;;0.93;0.27;;;25.60;53.60;;;;;;4985892;28;20770;-65
2021/08/09 03:42:28;;;;;;;1.25;0.30;;;25.50;53.50;;;;;;4988585;28;20406;-65
2021/08/09 03:44:53;;;;;;;1.58;0.30;;;25.60;53.10;;;;;;4989784;28;20393;-64
2021/08/09 03:47:19;;;;;;;0.38;0.20;;;25.50;53.20;;;;;;4981526;28;20910;-64
2021/08/09 03:49:44;;;;;;;1.53;0.30;;;25.50;53.40;;;;;;4989462;28;20813;-65
2021/08/09 03:52:10;;;;;;;1.20;0.20;;;25.50;53.40;;;;;;4990539;28;20410;-65
2021/08/09 03:54:36;;;;;;;0.83;0.30;;;25.60;53.30;;;;;;4987247;28;20433;-64
2021/08/09 03:57:02;;;;;;;3.75;0.40;;;25.50;53.20;;;;;;4987822;28;20394;-65
2021/08/09 03:59:28;;;;;;;3.75;0.38;;;25.50;53.20;;;;;;4987748;28;20441;-65
2021/08/09 04:01:53;;;;;;;1.67;0.40;;;25.50;53.10;;;;;;4986284;28;20779;-65
2021/08/09 04:04:19;;;;;;;5.20;0.60;;;25.50;52.90;;;;;;4988761;28;20397;-64
2021/08/09 04:06:45;;;;;;;2.67;0.50;;;25.50;52.40;;;;;;4987466;28;20417;-65
2021/08/09 04:09:10;;;;;;;2.40;0.40;;;25.50;52.70;;;;;;4988816;28;20398;-65
2021/08/09 04:11:36;;;;;;;2.22;0.40;;;25.40;52.00;;;;;;4991685;28;20521;-64
2021/08/09 04:14:04;;;;;;;1.87;0.47;;;25.40;51.90;;;;;;4991032;28;20397;-64
2021/08/09 04:16:29;;;;;;;1.77;0.30;;;25.40;52.50;;;;;;4993250;28;20485;-65
2021/08/09 04:18:55;;;;;;;2.08;0.47;;;25.40;52.50;;;;;;4986306;28;20509;-65
2021/08/09 04:21:21;;;;;;;3.10;0.28;;;25.40;52.20;;;;;;4986429;28;20409;-64
2021/08/09 04:23:48;;;;;;;2.03;0.50;;;25.50;52.20;;;;;;4990823;28;20875;-65
2021/08/09 04:26:15;;;;;;;3.50;0.40;;;25.50;52.20;;;;;;4987106;28;20452;-65
2021/08/09 04:28:42;;;;;;;1.08;0.30;;;25.40;51.90;;;;;;4987421;28;20396;-64
2021/08/09 04:31:08;;;;;;;1.75;0.30;;;25.50;51.80;;;;;;4987678;28;20403;-64
2021/08/09 04:33:47;;;;;;;1.35;0.30;;;25.50;51.60;;;;;;4988296;28;20418;-65
2021/08/09 04:36:13;;;;;;;1.10;0.30;;;25.40;51.70;;;;;;4987730;28;20387;-64
2021/08/09 04:38:39;;;;;;;1.30;0.30;;;25.50;51.90;;;;;;4987209;28;21234;-65
2021/08/09 04:41:08;;;;;;;2.15;0.30;;;25.40;51.90;;;;;;4990593;28;20394;-65
2021/08/09 04:43:38;;;;;;;0.82;0.30;;;25.40;52.00;;;;;;4987969;28;20401;-65
2021/08/09 04:46:05;;;;;;;1.05;0.28;;;25.50;52.00;;;;;;4992453;28;20401;-65
2021/08/09 04:48:31;;;;;;;0.63;0.30;;;25.40;52.10;;;;;;4991590;28;20399;-65
2021/08/09 04:50:56;;;;;;;1.73;0.30;;;25.40;52.20;;;;;;4986315;28;21556;-65
2021/08/09 04:53:22;;;;;;;1.00;0.30;;;25.40;52.20;;;;;;4985458;28;20525;-65
2021/08/09 04:55:48;;;;;;;0.60;0.20;;;25.40;52.10;;;;;;4985795;28;20398;-64
2021/08/09 04:58:13;;;;;;;1.20;0.30;;;25.40;52.10;;;;;;4985235;28;20417;-65
2021/08/09 05:00:39;;;;;;;0.77;0.30;;;25.40;52.10;;;;;;4992350;28;20398;-65
2021/08/09 05:03:04;;;;;;;0.93;0.40;;;25.40;51.90;;;;;;4994928;28;20406;-64
2021/08/09 05:05:30;;;;;;;0.77;0.28;;;25.50;52.00;;;;;;4990044;28;20943;-64
2021/08/09 05:07:56;;;;;;;0.73;0.30;;;25.40;51.90;;;;;;4988562;28;20407;-64
2021/08/09 05:10:23;;;;;;;1.17;0.40;;;25.50;52.00;;;;;;4991023;28;20487;-64
2021/08/09 05:12:48;;;;;;;1.02;0.30;;;25.50;52.00;;;;;;4985759;28;20430;-65
2021/08/09 05:15:14;;;;;;;1.10;0.30;;;25.50;52.00;;;;;;4990085;28;20472;-65
2021/08/09 05:17:41;;;;;;;1.10;0.40;;;25.50;52.00;;;;;;4985113;28;20480;-65
2021/08/09 05:20:08;;;;;;;2.72;0.55;;;25.50;51.90;;;;;;4987164;28;20779;-65
2021/08/09 05:22:34;;;;;;;0.93;0.30;;;25.50;52.10;;;;;;4987379;28;20398;-65
2021/08/09 05:25:00;;;;;;;0.68;0.20;;;25.50;52.10;;;;;;4987732;28;20383;-65
2021/08/09 05:27:26;;;;;;;1.30;0.30;;;25.50;52.20;;;;;;4986518;28;20984;-65
2021/08/09 05:29:52;;;;;;;0.98;0.30;;;25.50;52.20;;;;;;4988562;28;20430;-65
2021/08/09 05:32:18;;;;;;;1.03;0.30;;;25.50;52.20;;;;;;4989096;28;20426;-64
2021/08/09 05:34:46;;;;;;;0.95;0.30;;;25.50;52.20;;;;;;4989266;28;20402;-65
2021/08/09 05:37:13;;;;;;;0.85;0.30;;;25.50;52.20;;;;;;4990030;28;20395;-65
2021/08/09 05:39:40;;;;;;;0.80;0.30;;;25.50;52.20;;;;;;4998095;28;20750;-64
2021/08/09 05:42:05;;;;;;;0.73;0.30;;;25.50;52.20;;;;;;4990386;28;20388;-65
2021/08/09 05:44:31;;;;;;;0.80;0.40;;;25.50;52.20;;;;;;4990589;28;20406;-65
2021/08/09 05:46:56;;;;;;;1.07;0.30;;;25.50;52.10;;;;;;4984579;28;20391;-64
2021/08/09 05:49:22;;;;;;;1.50;0.30;;;25.50;52.10;;;;;;4984791;28;20394;-65
2021/08/09 05:51:48;;;;;;;1.30;0.40;;;25.50;52.10;;;;;;4990565;28;20407;-65
2021/08/09 05:54:13;;;;;;;0.90;0.27;;;25.60;52.20;;;;;;4984571;28;20406;-64
2021/08/09 05:56:39;;;;;;;0.80;0.40;;;25.50;52.20;;;;;;4984440;28;21225;-65
2021/08/09 05:59:05;;;;;;;0.90;0.30;;;25.60;52.20;;;;;;4984818;28;20410;-64
2021/08/09 06:01:31;;;;;;;0.70;0.30;;;25.60;52.20;;;;;;4994021;28;20714;-64
2021/08/09 06:03:57;;;;;;;0.70;0.30;;;25.60;52.20;;;;;;4993402;28;20391;-64
2021/08/09 06:06:22;;;;;;;0.70;0.30;;;25.60;52.20;;;;;;4984244;28;20425;-65
2021/08/09 06:08:48;;;;;;;1.30;0.30;;;25.60;52.40;;;;;;4988337;28;20394;-64
2021/08/09 06:11:14;;;;;;;1.77;0.30;;;25.60;52.30;;;;;;4989076;28;20398;-65
2021/08/09 06:13:40;;;;;;;1.23;0.40;;;25.60;52.20;;;;;;4988635;28;20422;-65
2021/08/09 06:16:06;;;;;;;0.63;0.30;;;25.60;52.20;;;;;;4983650;28;20391;-64
2021/08/09 06:18:36;;;;;;;0.57;0.30;;;25.60;52.20;;;;;;4983966;28;20462;-64
2021/08/09 06:21:02;;;;;;;0.60;0.20;;;25.60;52.20;;;;;;4984139;28;20391;-64
2021/08/09 06:23:28;;;;;;;0.73;0.32;;;25.60;52.10;;;;;;4983406;28;20464;-65
2021/08/09 06:25:55;;;;;;;0.88;0.30;;;25.60;52.20;;;;;;4984650;28;20394;-65
2021/08/09 06:28:21;;;;;;;0.60;0.30;;;25.60;52.20;;;;;;4986857;28;20399;-64
2021/08/09 06:30:47;;;;;;;0.80;0.20;;;25.60;52.20;;;;;;4984376;28;20402;-65
2021/08/09 06:33:13;;;;;;;0.60;0.20;;;25.60;52.20;;;;;;4985861;28;20434;-65
2021/08/09 06:35:38;;;;;;;0.80;0.30;;;25.60;52.10;;;;;;4987620;28;20903;-64
2021/08/09 06:38:05;;;;;;;0.63;0.20;;;25.60;52.20;;;;;;4986778;28;20401;-64
2021/08/09 06:40:32;;;;;;;0.77;0.30;;;25.60;52.10;;;;;;4985637;28;20479;-65
2021/08/09 06:42:58;;;;;;;1.67;0.38;;;25.60;52.10;;;;;;4986397;28;20406;-65
2021/08/09 06:45:24;;;;;;;0.80;0.35;;;25.70;52.10;;;;;;4983461;28;20429;-65
2021/08/09 06:47:49;;;;;;;1.00;0.40;;;25.70;51.90;;;;;;4983742;28;20402;-65
2021/08/09 06:50:15;;;;;;;0.90;0.30;;;25.70;51.90;;;;;;4984301;28;20411;-65
2021/08/09 06:52:40;;;;;;;0.93;0.35;;;25.70;51.90;;;;;;4983325;28;20505;-65
2021/08/09 06:55:07;;;;;;;0.60;0.30;;;25.70;52.00;;;;;;4983800;28;20767;-64
2021/08/09 06:57:33;;;;;;;0.60;0.30;;;25.70;51.90;;;;;;4983518;28;20429;-65
2021/08/09 06:59:59;;;;;;;0.88;0.30;;;25.70;52.00;;;;;;4983654;28;20387;-65
2021/08/09 07:02:26;;;;;;;1.25;0.40;;;25.70;52.10;;;;;;4983680;28;20410;-65
2021/08/09 07:04:51;;;;;;;0.75;0.40;;;25.70;52.00;;;;;;4999914;28;20438;-65
2021/08/09 07:07:17;;;;;;;0.70;0.30;;;25.70;52.00;;;;;;4983615;28;20438;-65
2021/08/09 07:09:43;;;;;;;0.77;0.30;;;25.70;52.00;;;;;;4984495;28;20733;-65
2021/08/09 07:12:09;;;;;;;0.82;0.30;;;25.70;52.00;;;;;;4983273;28;20434;-65
2021/08/09 07:14:36;;;;;;;0.52;0.30;;;25.70;52.00;;;;;;4984638;28;20438;-65
2021/08/09 07:17:02;;;;;;;0.57;0.25;;;25.70;52.00;;;;;;4983764;28;20466;-65
2021/08/09 07:19:27;;;;;;;0.80;0.25;;;25.70;52.00;;;;;;4983021;28;21000;-65
2021/08/09 07:21:53;;;;;;;0.80;0.30;;;25.70;52.10;;;;;;4983747;28;20397;-65
2021/08/09 07:24:19;;;;;;;0.63;0.30;;;25.60;52.10;;;;;;4984364;28;20417;-65
2021/08/09 07:26:44;;;;;;;1.47;0.30;;;25.60;52.10;;;;;;4987538;28;20393;-65
2021/08/09 07:29:12;;;;;;;0.60;0.30;;;25.60;52.10;;;;;;4988273;28;20390;-65
2021/08/09 07:31:37;;;;;;;0.60;0.30;;;25.70;52.20;;;;;;4987940;28;20553;-64
2021/08/09 07:34:08;;;;;;;0.50;0.20;;;25.60;52.10;;;;;;4988930;28;20464;-65
2021/08/09 07:36:34;;;;;;;0.57;0.20;;;25.60;52.10;;;;;;4988628;28;20401;-65
2021/08/09 07:39:00;;;;;;;0.55;0.30;;;25.70;52.10;;;;;;4987116;28;20402;-65
2021/08/09 07:41:26;;;;;;;0.70;0.30;;;25.70;52.10;;;;;;4988044;28;20453;-65
2021/08/09 07:43:51;;;;;;;0.30;0.20;;;25.70;52.10;;;;;;4988398;28;20398;-65
2021/08/09 07:46:17;;;;;;;0.60;0.20;;;25.70;52.20;;;;;;4986340;28;20733;-65
2021/08/09 07:48:43;;;;;;;0.80;0.20;;;25.70;52.10;;;;;;4989271;28;20394;-65
2021/08/09 07:51:08;;;;;;;0.52;0.30;;;25.70;52.10;;;;;;4986457;28;20394;-65
2021/08/09 07:53:34;;;;;;;0.80;0.30;;;25.70;52.10;;;;;;4988145;28;20422;-65
2021/08/09 07:56:00;;;;;;;0.65;0.28;;;25.70;52.10;;;;;;4986839;28;20528;-65
2021/08/09 07:58:25;;;;;;;0.60;0.30;;;25.70;52.10;;;;;;4987635;28;20401;-65
2021/08/09 08:00:53;;;;;;;0.52;0.30;;;25.70;52.00;;;;;;4986213;28;20405;-65
2021/08/09 08:03:18;;;;;;;0.50;0.30;;;25.70;52.10;;;;;;4987731;28;20410;-65
2021/08/09 08:05:44;;;;;;;1.50;0.30;;;25.80;52.10;;;;;;4986194;28;20386;-65
2021/08/09 08:08:11;;;;;;;0.68;0.30;;;25.70;52.10;;;;;;4986285;28;21038;-65
2021/08/09 08:10:37;;;;;;;0.55;0.20;;;25.70;52.10;;;;;;4986776;28;20398;-65
2021/08/09 08:13:04;;;;;;;0.73;0.30;;;25.70;52.10;;;;;;4986642;28;20491;-65
2021/08/09 08:15:30;;;;;;;0.52;0.30;;;25.70;52.10;;;;;;4989435;28;20393;-65
2021/08/09 08:17:56;;;;;;;0.60;0.30;;;25.70;52.10;;;;;;4987524;28;20411;-65
2021/08/09 08:20:22;;;;;;;0.75;0.30;;;25.70;52.10;;;;;;4986203;28;20581;-65
2021/08/09 08:22:48;;;;;;;0.68;0.20;;;25.80;52.20;;;;;;4988235;28;20490;-65
2021/08/09 08:25:13;;;;;;;0.52;0.20;;;25.70;52.00;;;;;;4985462;28;20402;-65
2021/08/09 08:27:39;;;;;;;0.85;0.40;;;25.70;52.10;;;;;;4986095;28;20406;-65
2021/08/09 08:30:07;;;;;;;0.95;0.20;;;25.70;52.00;;;;;;4988627;28;20910;-66
2021/08/09 08:32:33;;;;;;;0.75;0.40;;;25.70;52.00;;;;;;4986732;28;20986;-65
2021/08/09 08:35:01;;;;;;;0.50;0.20;;;25.70;52.00;;;;;;4988624;28;20404;-65
2021/08/09 08:37:26;;;;;;;0.60;0.30;;;25.80;52.70;;;;;;4985723;28;20870;-65
2021/08/09 08:39:52;;;;;;;0.55;0.28;;;25.70;52.00;;;;;;4985530;28;21657;-65
2021/08/09 08:42:19;;;;;;;0.77;0.37;;;25.80;52.00;;;;;;4983885;28;20453;-65
2021/08/09 08:44:45;;;;;;;0.60;0.28;;;25.80;52.00;;;;;;4985711;28;20456;-65
2021/08/09 08:47:20;;;;;;;0.65;0.30;;;25.80;52.00;;;;;;4985732;28;20871;-65
2021/08/09 08:49:47;;;;;;;0.93;0.30;;;25.80;52.10;;;;;;4987300;28;20800;-65
2021/08/09 08:52:15;;;;;;;0.60;0.28;;;25.80;52.00;;;;;;4985512;28;20410;-65
2021/08/09 08:54:40;;;;;;;0.70;0.30;;;25.80;52.00;;;;;;4986168;28;20457;-65
2021/08/09 08:57:21;;;;;;;1.23;0.20;;;25.80;52.00;;;;;;4984044;28;20398;-65
2021/08/09 08:59:48;;;;;;;0.70;0.30;;;25.70;52.00;;;;;;4985852;28;20417;-65
2021/08/09 09:02:38;;;;;;;0.50;0.20;;;25.80;52.10;;;;;;4984891;28;20971;-65
2021/08/09 09:05:20;;;;;;;0.60;0.30;;;25.70;52.10;;;;;;4988458;28;20889;-65
2021/08/09 09:08:04;;;;;;;0.50;0.20;;;25.80;52.10;;;;;;5018744;28;20387;-65
2021/08/09 09:10:35;;;;;;;0.63;0.30;;;25.80;52.10;;;;;;4991466;28;20386;-65
2021/08/09 09:13:09;;;;;;;0.65;0.28;;;25.80;52.10;;;;;;4991286;28;20425;-65
2021/08/09 09:16:09;;;;;;;0.98;0.30;;;25.70;52.10;;;;;;4989532;28;20405;-65
2021/08/09 09:19:01;;;;;;;0.60;0.30;;;25.70;52.10;;;;;;4988049;28;20430;-65
2021/08/09 09:21:42;;;;;;;0.75;0.20;;;25.80;52.10;;;;;;4982999;28;20391;-65
2021/08/09 09:24:19;;;;;;;0.80;0.40;;;25.80;52.10;;;;;;4988279;28;20406;-65
2021/08/09 09:26:51;;;;;;;0.80;0.30;;;25.70;52.10;;;;;;4988114;28;20382;-65
2021/08/09 09:29:17;;;;;;;0.60;0.20;;;25.70;52.20;;;;;;4988221;28;20820;-65
2021/08/09 09:31:45;;;;;;;0.80;0.40;;;25.70;52.10;;;;;;4990747;28;20991;-65
2021/08/09 09:34:14;;;;;;;0.60;0.30;;;25.70;52.10;;;;;;4992065;28;20929;-65
2021/08/09 09:36:57;;;;;;;0.60;0.30;;;25.70;52.10;;;;;;4988291;28;20401;-65
2021/08/09 09:39:30;;;;;;;0.80;0.30;;;25.70;52.10;;;;;;4986730;28;20395;-65
2021/08/09 09:41:58;;;;;;;0.52;0.20;;;25.70;52.20;;;;;;4985804;28;20743;-65
2021/08/09 09:44:26;;;;;;;0.57;0.20;;;25.70;52.20;;;;;;4985754;28;20480;-65
2021/08/09 09:46:52;;;;;;;0.53;0.20;;;25.80;52.20;;;;;;4985267;28;20808;-65
2021/08/09 09:49:34;;;;;;;0.70;0.30;;;25.80;52.30;;;;;;4990757;28;20498;-65
2021/08/09 09:52:00;;;;;;;0.40;0.20;;;25.70;52.20;;;;;;4988117;28;20395;-65
2021/08/09 09:54:26;;;;;;;0.77;0.30;;;25.70;52.20;;;;;;4984629;28;20413;-64
2021/08/09 09:56:53;;;;;;;1.00;0.32;;;25.70;52.20;;;;;;4989399;28;20795;-65
2021/08/09 09:59:19;;;;;;;0.77;0.40;;;25.70;52.20;;;;;;4985977;28;20508;-65
2021/08/09 10:01:45;;;;;;;0.70;0.30;;;25.70;52.20;;;;;;4986806;28;20803;-64
2021/08/09 10:04:11;;;;;;;1.52;0.30;;;25.70;52.20;;;;;;4986120;28;20811;-65
2021/08/09 10:06:38;;;;;;;0.70;0.37;;;25.70;52.20;;;;;;4983776;28;20397;-65
2021/08/09 10:09:07;;;;;;;0.65;0.30;;;25.70;52.20;;;;;;4983871;28;20431;-65
2021/08/09 10:11:35;;;;;;;1.10;0.35;;;25.70;52.10;;;;;;4987449;28;20476;-65
2021/08/09 10:14:02;;;;;;;0.60;0.30;;;25.70;52.10;;;;;;4987445;28;21049;-65
2021/08/09 10:16:33;;;;;;;0.73;0.30;;;25.70;52.10;;;;;;4986216;28;20481;-65
2021/08/09 10:19:00;;;;;;;0.60;0.30;;;25.80;52.20;;;;;;4987299;28;20418;-65
2021/08/09 10:21:32;;;;;;;0.50;0.20;;;25.80;52.10;;;;;;4988120;28;20409;-66
2021/08/09 10:23:59;;;;;;;0.50;0.22;;;25.80;52.20;;;;;;4987338;28;20395;-65
2021/08/09 10:26:27;;;;;;;0.85;0.40;;;25.80;52.10;;;;;;4983362;28;20429;-65
2021/08/09 10:28:54;;;;;;;0.68;0.30;;;25.80;52.10;;;;;;4988186;28;20865;-65
2021/08/09 10:31:57;;;;;;;0.80;0.30;;;25.80;52.10;;;;;;4989400;28;20418;-65
2021/08/09 10:34:40;;;;;;;0.80;0.30;;;25.80;52.10;;;;;;4988021;28;20418;-65
2021/08/09 10:37:10;;;;;;;0.50;0.30;;;25.80;52.10;;;;;;5003168;28;20415;-65
2021/08/09 10:39:58;;;;;;;0.50;0.30;;;25.80;52.10;;;;;;4988895;28;20452;-65
2021/08/09 10:42:30;;;;;;;0.70;0.28;;;25.80;52.10;;;;;;4985813;28;20424;-65
2021/08/09 10:44:56;;;;;;;0.60;0.30;;;25.80;52.10;;;;;;4985893;28;20391;-65
2021/08/09 10:47:45;;;;;;;0.90;0.30;;;25.80;52.10;;;;;;4987299;28;20492;-65
2021/08/09 10:50:43;;;;;;;1.02;0.32;;;25.80;52.00;;;;;;4986191;28;21040;-65
2021/08/09 10:53:28;;;;;;;0.60;0.30;;;25.80;52.00;;;;;;4986395;28;20458;-65
2021/08/09 10:55:58;;;;;;;0.40;0.20;;;25.80;52.10;;;;;;4984792;28;20396;-65
2021/08/09 10:58:46;;;;;;;0.90;0.30;;;25.80;52.60;;;;;;4981333;28;20409;-65
2021/08/09 11:01:12;;;;;;;0.85;0.30;;;25.90;52.10;;;;;;4983661;28;20383;-64
2021/08/09 11:04:03;;;;;;;1.20;0.30;;;25.90;52.10;;;;;;4984831;28;20620;-64
2021/08/09 11:06:53;;;;;;;0.65;0.25;;;25.80;52.30;;;;;;4985018;28;20408;-65
2021/08/09 11:09:35;;;;;;;0.73;0.30;;;25.80;52.10;;;;;;4983984;28;20437;-65
2021/08/09 11:12:10;;;;;;;0.88;0.30;;;25.90;52.10;;;;;;4984253;28;20409;-64
2021/08/09 11:14:59;;;;;;;0.88;0.30;;;25.90;52.10;;;;;;4984391;28;20438;-64
2021/08/09 11:17:25;;;;;;;0.80;0.40;;;25.90;51.90;;;;;;4982743;28;20408;-65
2021/08/09 11:19:51;;;;;;;0.50;0.20;;;25.90;51.90;;;;;;4985401;28;20899;-65
2021/08/09 11:22:18;;;;;;;0.82;0.32;;;25.90;51.90;;;;;;4984910;28;20394;-65
2021/08/09 11:24:44;;;;;;;1.02;0.38;;;26.00;51.90;;;;;;4982836;28;20394;-65
2021/08/09 11:27:11;;;;;;;1.20;0.43;;;25.90;51.80;;;;;;4981821;28;20399;-64
2021/08/09 11:29:57;;;;;;;0.40;0.20;;;26.00;51.80;;;;;;4983310;28;20402;-65
2021/08/09 11:32:40;;;;;;;0.57;0.30;;;26.00;51.80;;;;;;5014220;28;20775;-65
2021/08/09 11:35:06;;;;;;;1.00;0.30;;;25.90;51.80;;;;;;4983462;28;20408;-65
2021/08/09 11:37:32;;;;;;;0.68;0.30;;;26.00;51.90;;;;;;4983219;28;20397;-64
2021/08/09 11:39:58;;;;;;;0.73;0.30;;;26.00;51.80;;;;;;4984066;28;20580;-65
2021/08/09 11:42:23;;;;;;;0.40;0.20;;;26.00;51.80;;;;;;4982551;28;21349;-65
2021/08/09 11:44:51;;;;;;;0.90;0.40;;;26.00;51.70;;;;;;4983517;28;20398;-64
2021/08/09 11:47:23;;;;;;;1.33;0.30;;;26.00;51.70;;;;;;4984827;28;20398;-65
2021/08/09 11:49:55;;;;;;;2.38;0.50;;;26.00;51.60;;;;;;4984498;28;20434;-65
2021/08/09 11:52:21;;;;;;;1.00;0.50;;;25.90;51.90;;;;;;4984020;28;20450;-65
2021/08/09 11:54:47;;;;;;;2.20;0.50;;;26.00;51.70;;;;;;4999424;28;20799;-64
2021/08/09 11:57:13;;;;;;;1.90;0.40;;;26.00;51.10;;;;;;4982234;28;20445;-65
2021/08/09 11:59:40;;;;;;;0.82;0.40;;;26.00;51.00;;;;;;4983226;28;20891;-64
2021/08/09 12:02:08;;;;;;;1.42;0.40;;;26.00;51.00;;;;;;4985757;28;20802;-65
2021/08/09 12:04:45;;;;;;;1.48;0.40;;;26.00;51.20;;;;;;4985552;28;20888;-65
2021/08/09 12:07:19;;;;;;;4.25;0.40;;;25.90;51.40;;;;;;4985460;28;20403;-64
2021/08/09 12:09:45;;;;;;;2.28;0.50;;;25.90;51.40;;;;;;4983534;28;20410;-64
2021/08/09 12:12:15;;;;;;;1.35;0.50;;;25.90;50.90;;;;;;4984824;28;20779;-65
2021/08/09 12:14:41;;;;;;;2.00;0.50;;;26.00;50.50;;;;;;4988416;28;20433;-64
2021/08/09 12:17:15;;;;;;;1.17;0.40;;;26.00;50.60;;;;;;4989125;28;20968;-64
2021/08/09 12:19:46;;;;;;;1.75;0.50;;;26.00;50.70;;;;;;4993957;28;20418;-65
2021/08/09 12:22:17;;;;;;;1.67;0.47;;;25.90;50.40;;;;;;4993286;28;20449;-65
2021/08/09 12:25:02;;;;;;;0.63;0.30;;;26.00;50.60;;;;;;4988014;28;20826;-64
2021/08/09 12:27:29;;;;;;;1.90;0.47;;;25.90;50.70;;;;;;4992624;28;20423;-64
2021/08/09 12:29:59;;;;;;;2.67;0.50;;;26.00;50.70;;;;;;4984240;28;20885;-64
2021/08/09 12:32:27;;;;;;;2.38;0.60;;;26.00;50.60;;;;;;4985317;28;20898;-64
2021/08/09 12:34:53;;;;;;;4.03;0.80;;;26.00;50.60;;;;;;4986172;28;20410;-65
2021/08/09 12:37:18;;;;;;;4.18;0.80;;;26.00;49.80;;;;;;4993123;28;20908;-64
2021/08/09 12:39:44;;;;;;;3.97;0.70;;;26.00;49.80;;;;;;4987062;28;20493;-64
2021/08/09 12:42:18;;;;;;;3.42;0.65;;;26.00;50.10;;;;;;4989791;28;20401;-64
2021/08/09 12:44:45;;;;;;;1.75;0.90;;;25.90;50.10;;;;;;4993393;28;20394;-64
2021/08/09 12:47:12;;;;;;;3.13;1.00;;;26.00;50.20;;;;;;4987073;28;20425;-64
2021/08/09 12:49:38;;;;;;;3.57;1.00;;;26.10;50.30;;;;;;4990698;28;20480;-64
2021/08/09 12:52:04;;;;;;;4.07;1.10;;;26.00;50.20;;;;;;4995938;28;20806;-64
2021/08/09 12:54:31;;;;;;;2.95;1.20;;;26.10;50.20;;;;;;4985564;28;20405;-64
2021/08/09 12:56:57;;;;;;;3.80;1.00;;;26.20;49.90;;;;;;4985511;28;20890;-64